sensor_id;sensor_type;location;lat;lon;timestamp;temperature;humidity
25991;DHT22;13779;-33.886;151.198;2023-04-03T00:00:17;18.90;99.90
25991;DHT22;13779;-33.886;151.198;2023-04-03T00:02:47;18.90;99.90
25991;DHT22;13779;-33.886;151.198;2023-04-03T00:05:18;18.90;99.90
25991;DHT22;13779;-33.886;151.198;2023-04-03T00:07:48;18.90;99.90
25991;DHT22;13779;-33.886;151.198;2023-04-03T00:10:20;18.90;99.90
25991;DHT22;13779;-33.886;151.198;2023-04-03T00:12:51;18.90;99.90
25991;DHT22;13779;-33.886;151.198;2023-04-03T00:15:21;18.90;99.90
25991;DHT22;13779;-33.886;151.198;2023-04-03T00:17:52;19.00;99.90
25991;DHT22;13779;-33.886;151.198;2023-04-03T00:20:22;19.00;99.90
25991;DHT22;13779;-33.886;151.198;2023-04-03T00:22:53;19.10;99.90
25991;DHT22;13779;-33.886;151.198;2023-04-03T00:25:24;19.10;99.90
25991;DHT22;13779;-33.886;151.198;2023-04-03T00:27:54;19.10;99.90
25991;DHT22;13779;-33.886;151.198;2023-04-03T00:30:25;19.10;99.90
25991;DHT22;13779;-33.886;151.198;2023-04-03T00:32:56;19.10;99.90
25991;DHT22;13779;-33.886;151.198;2023-04-03T00:35:27;19.10;99.90
25991;DHT22;13779;-33.886;151.198;2023-04-03T00:37:58;19.20;99.90
25991;DHT22;13779;-33.886;151.198;2023-04-03T00:40:32;19.20;99.90
25991;DHT22;13779;-33.886;151.198;2023-04-03T00:43:17;19.30;99.90
25991;DHT22;13779;-33.886;151.198;2023-04-03T00:45:50;19.40;99.90
25991;DHT22;13779;-33.886;151.198;2023-04-03T00:50:54;19.30;99.90
25991;DHT22;13779;-33.886;151.198;2023-04-03T00:53:31;19.40;99.90
25991;DHT22;13779;-33.886;151.198;2023-04-03T00:56:06;19.40;99.90
25991;DHT22;13779;-33.886;151.198;2023-04-03T00:58:42;19.50;99.90
25991;DHT22;13779;-33.886;151.198;2023-04-03T01:01:18;19.50;99.90
25991;DHT22;13779;-33.886;151.198;2023-04-03T01:03:50;19.60;99.90
25991;DHT22;13779;-33.886;151.198;2023-04-03T01:06:29;19.70;99.90
25991;DHT22;13779;-33.886;151.198;2023-04-03T01:09:03;19.80;99.90
25991;DHT22;13779;-33.886;151.198;2023-04-03T01:11:36;19.90;99.90
25991;DHT22;13779;-33.886;151.198;2023-04-03T01:14:06;19.90;99.90
25991;DHT22;13779;-33.886;151.198;2023-04-03T01:16:37;19.90;99.90
25991;DHT22;13779;-33.886;151.198;2023-04-03T01:19:13;20.00;99.90
25991;DHT22;13779;-33.886;151.198;2023-04-03T01:22:23;20.00;99.90
25991;DHT22;13779;-33.886;151.198;2023-04-03T01:24:56;20.10;99.90
25991;DHT22;13779;-33.886;151.198;2023-04-03T01:27:27;20.20;99.90
25991;DHT22;13779;-33.886;151.198;2023-04-03T01:29:57;20.30;99.90
25991;DHT22;13779;-33.886;151.198;2023-04-03T01:32:28;20.40;99.90
25991;DHT22;13779;-33.886;151.198;2023-04-03T01:34:59;20.40;99.90
25991;DHT22;13779;-33.886;151.198;2023-04-03T01:37:29;20.50;99.90
25991;DHT22;13779;-33.886;151.198;2023-04-03T01:39:59;20.60;99.90
25991;DHT22;13779;-33.886;151.198;2023-04-03T01:42:30;20.70;99.90
25991;DHT22;13779;-33.886;151.198;2023-04-03T01:45:04;20.90;99.90
25991;DHT22;13779;-33.886;151.198;2023-04-03T01:47:34;20.90;99.90
25991;DHT22;13779;-33.886;151.198;2023-04-03T01:50:05;20.90;99.90
25991;DHT22;13779;-33.886;151.198;2023-04-03T01:52:36;21.00;99.90
25991;DHT22;13779;-33.886;151.198;2023-04-03T01:55:07;21.00;99.90
25991;DHT22;13779;-33.886;151.198;2023-04-03T01:57:41;21.10;99.90
25991;DHT22;13779;-33.886;151.198;2023-04-03T02:00:12;21.20;99.90
25991;DHT22;13779;-33.886;151.198;2023-04-03T02:02:43;21.20;99.90
25991;DHT22;13779;-33.886;151.198;2023-04-03T02:05:13;21.20;99.90
25991;DHT22;13779;-33.886;151.198;2023-04-03T02:07:44;21.20;99.90
25991;DHT22;13779;-33.886;151.198;2023-04-03T02:10:15;21.20;99.90
25991;DHT22;13779;-33.886;151.198;2023-04-03T02:12:46;21.30;99.90
25991;DHT22;13779;-33.886;151.198;2023-04-03T02:15:16;21.30;99.90
25991;DHT22;13779;-33.886;151.198;2023-04-03T02:17:47;21.40;99.90
25991;DHT22;13779;-33.886;151.198;2023-04-03T02:20:18;21.50;99.90
25991;DHT22;13779;-33.886;151.198;2023-04-03T02:22:48;21.60;99.90
25991;DHT22;13779;-33.886;151.198;2023-04-03T02:25:19;21.60;99.90
25991;DHT22;13779;-33.886;151.198;2023-04-03T02:27:49;21.50;99.90
25991;DHT22;13779;-33.886;151.198;2023-04-03T02:30:20;21.50;99.90
25991;DHT22;13779;-33.886;151.198;2023-04-03T02:32:50;21.50;99.90
25991;DHT22;13779;-33.886;151.198;2023-04-03T02:35:21;21.40;99.90
25991;DHT22;13779;-33.886;151.198;2023-04-03T02:37:52;21.50;99.90
25991;DHT22;13779;-33.886;151.198;2023-04-03T02:40:22;21.50;99.90
25991;DHT22;13779;-33.886;151.198;2023-04-03T02:42:52;21.60;99.90
25991;DHT22;13779;-33.886;151.198;2023-04-03T02:45:23;21.50;99.90
25991;DHT22;13779;-33.886;151.198;2023-04-03T02:47:54;21.60;99.90
25991;DHT22;13779;-33.886;151.198;2023-04-03T02:50:24;21.60;99.90
25991;DHT22;13779;-33.886;151.198;2023-04-03T02:52:55;21.60;99.90
25991;DHT22;13779;-33.886;151.198;2023-04-03T02:55:25;21.70;99.90
25991;DHT22;13779;-33.886;151.198;2023-04-03T02:57:56;21.60;99.90
25991;DHT22;13779;-33.886;151.198;2023-04-03T03:00:26;21.70;99.90
25991;DHT22;13779;-33.886;151.198;2023-04-03T03:02:56;21.60;99.90
25991;DHT22;13779;-33.886;151.198;2023-04-03T03:05:26;21.60;99.90
25991;DHT22;13779;-33.886;151.198;2023-04-03T03:07:57;21.60;99.90
25991;DHT22;13779;-33.886;151.198;2023-04-03T03:10:27;21.80;99.90
25991;DHT22;13779;-33.886;151.198;2023-04-03T03:13:06;21.80;99.90
25991;DHT22;13779;-33.886;151.198;2023-04-03T03:15:42;21.90;99.90
25991;DHT22;13779;-33.886;151.198;2023-04-03T03:18:12;21.80;99.90
25991;DHT22;13779;-33.886;151.198;2023-04-03T03:20:52;21.90;99.90
25991;DHT22;13779;-33.886;151.198;2023-04-03T03:23:25;21.90;99.90
25991;DHT22;13779;-33.886;151.198;2023-04-03T03:26:08;21.80;99.90
25991;DHT22;13779;-33.886;151.198;2023-04-03T03:28:40;21.80;99.90
25991;DHT22;13779;-33.886;151.198;2023-04-03T03:31:10;21.70;99.90
25991;DHT22;13779;-33.886;151.198;2023-04-03T03:33:43;21.70;99.90
25991;DHT22;13779;-33.886;151.198;2023-04-03T03:36:13;21.80;99.90
25991;DHT22;13779;-33.886;151.198;2023-04-03T03:38:43;21.80;99.90
25991;DHT22;13779;-33.886;151.198;2023-04-03T03:41:13;21.90;99.90
25991;DHT22;13779;-33.886;151.198;2023-04-03T03:43:43;21.90;99.90
25991;DHT22;13779;-33.886;151.198;2023-04-03T03:46:14;21.90;99.90
25991;DHT22;13779;-33.886;151.198;2023-04-03T03:48:44;21.90;99.90
25991;DHT22;13779;-33.886;151.198;2023-04-03T03:51:14;22.00;99.90
25991;DHT22;13779;-33.886;151.198;2023-04-03T03:53:44;22.10;99.90
25991;DHT22;13779;-33.886;151.198;2023-04-03T03:56:15;22.10;99.90
25991;DHT22;13779;-33.886;151.198;2023-04-03T03:58:46;22.10;99.90
25991;DHT22;13779;-33.886;151.198;2023-04-03T04:01:17;22.10;99.90
25991;DHT22;13779;-33.886;151.198;2023-04-03T04:03:47;22.20;99.90
25991;DHT22;13779;-33.886;151.198;2023-04-03T04:06:18;22.30;99.90
25991;DHT22;13779;-33.886;151.198;2023-04-03T04:08:49;22.30;99.90
25991;DHT22;13779;-33.886;151.198;2023-04-03T04:11:20;22.30;99.90
25991;DHT22;13779;-33.886;151.198;2023-04-03T04:13:55;22.50;99.90
25991;DHT22;13779;-33.886;151.198;2023-04-03T04:16:25;22.70;99.90
25991;DHT22;13779;-33.886;151.198;2023-04-03T04:18:56;22.90;99.90
25991;DHT22;13779;-33.886;151.198;2023-04-03T04:21:26;23.10;99.90
25991;DHT22;13779;-33.886;151.198;2023-04-03T04:23:57;23.10;99.90
25991;DHT22;13779;-33.886;151.198;2023-04-03T04:26:27;23.10;99.90
25991;DHT22;13779;-33.886;151.198;2023-04-03T04:28:58;23.10;99.90
25991;DHT22;13779;-33.886;151.198;2023-04-03T04:31:28;23.00;99.90
25991;DHT22;13779;-33.886;151.198;2023-04-03T04:33:59;22.90;99.90
25991;DHT22;13779;-33.886;151.198;2023-04-03T04:36:29;22.80;99.90
25991;DHT22;13779;-33.886;151.198;2023-04-03T04:39:00;22.70;99.90
25991;DHT22;13779;-33.886;151.198;2023-04-03T04:41:31;22.50;99.90
25991;DHT22;13779;-33.886;151.198;2023-04-03T04:44:02;22.30;99.90
25991;DHT22;13779;-33.886;151.198;2023-04-03T04:46:33;22.30;99.90
25991;DHT22;13779;-33.886;151.198;2023-04-03T04:49:06;22.20;99.90
25991;DHT22;13779;-33.886;151.198;2023-04-03T04:51:37;22.20;99.90
25991;DHT22;13779;-33.886;151.198;2023-04-03T04:54:18;22.00;99.90
25991;DHT22;13779;-33.886;151.198;2023-04-03T04:56:49;21.90;99.90
25991;DHT22;13779;-33.886;151.198;2023-04-03T04:59:19;21.90;99.90
25991;DHT22;13779;-33.886;151.198;2023-04-03T05:01:55;21.90;99.90
25991;DHT22;13779;-33.886;151.198;2023-04-03T05:04:26;21.80;99.90
25991;DHT22;13779;-33.886;151.198;2023-04-03T05:07:00;21.80;99.90
25991;DHT22;13779;-33.886;151.198;2023-04-03T05:09:34;21.70;99.90
25991;DHT22;13779;-33.886;151.198;2023-04-03T05:12:04;21.70;99.90
25991;DHT22;13779;-33.886;151.198;2023-04-03T05:14:35;21.70;99.90
25991;DHT22;13779;-33.886;151.198;2023-04-03T05:17:06;21.70;99.90
25991;DHT22;13779;-33.886;151.198;2023-04-03T05:19:36;21.60;99.90
25991;DHT22;13779;-33.886;151.198;2023-04-03T05:22:07;21.70;99.90
25991;DHT22;13779;-33.886;151.198;2023-04-03T05:24:38;21.60;99.90
25991;DHT22;13779;-33.886;151.198;2023-04-03T05:27:08;21.70;99.90
25991;DHT22;13779;-33.886;151.198;2023-04-03T05:29:39;21.60;99.90
25991;DHT22;13779;-33.886;151.198;2023-04-03T05:32:13;21.60;99.90
25991;DHT22;13779;-33.886;151.198;2023-04-03T05:34:43;21.60;99.90
25991;DHT22;13779;-33.886;151.198;2023-04-03T05:37:14;21.60;99.90
25991;DHT22;13779;-33.886;151.198;2023-04-03T05:39:45;21.60;99.90
25991;DHT22;13779;-33.886;151.198;2023-04-03T05:42:15;21.70;99.90
25991;DHT22;13779;-33.886;151.198;2023-04-03T05:44:46;21.70;99.90
25991;DHT22;13779;-33.886;151.198;2023-04-03T05:47:17;21.70;99.90
25991;DHT22;13779;-33.886;151.198;2023-04-03T05:49:48;21.80;99.90
25991;DHT22;13779;-33.886;151.198;2023-04-03T05:52:33;21.80;99.90
25991;DHT22;13779;-33.886;151.198;2023-04-03T05:55:06;21.80;99.90
25991;DHT22;13779;-33.886;151.198;2023-04-03T05:57:37;21.70;99.90
25991;DHT22;13779;-33.886;151.198;2023-04-03T06:00:13;21.60;99.90
25991;DHT22;13779;-33.886;151.198;2023-04-03T06:02:45;21.50;99.90
25991;DHT22;13779;-33.886;151.198;2023-04-03T06:05:16;21.40;99.90
25991;DHT22;13779;-33.886;151.198;2023-04-03T06:07:46;21.30;99.90
25991;DHT22;13779;-33.886;151.198;2023-04-03T06:10:18;21.20;99.90
25991;DHT22;13779;-33.886;151.198;2023-04-03T06:12:49;21.10;99.90
25991;DHT22;13779;-33.886;151.198;2023-04-03T06:15:20;21.10;99.90
25991;DHT22;13779;-33.886;151.198;2023-04-03T06:17:50;21.00;99.90
25991;DHT22;13779;-33.886;151.198;2023-04-03T06:20:20;21.00;99.90
25991;DHT22;13779;-33.886;151.198;2023-04-03T06:22:51;21.00;99.90
25991;DHT22;13779;-33.886;151.198;2023-04-03T06:25:21;21.00;99.90
25991;DHT22;13779;-33.886;151.198;2023-04-03T06:27:55;21.00;99.90
25991;DHT22;13779;-33.886;151.198;2023-04-03T06:30:25;21.00;99.90
25991;DHT22;13779;-33.886;151.198;2023-04-03T06:32:55;21.10;99.90
25991;DHT22;13779;-33.886;151.198;2023-04-03T06:35:29;21.10;99.90
25991;DHT22;13779;-33.886;151.198;2023-04-03T06:38:00;21.10;99.90
25991;DHT22;13779;-33.886;151.198;2023-04-03T06:40:30;21.20;99.90
25991;DHT22;13779;-33.886;151.198;2023-04-03T06:43:00;21.20;99.90
25991;DHT22;13779;-33.886;151.198;2023-04-03T06:45:30;21.20;99.90
25991;DHT22;13779;-33.886;151.198;2023-04-03T06:48:00;21.30;99.90
25991;DHT22;13779;-33.886;151.198;2023-04-03T06:50:30;21.20;99.90
25991;DHT22;13779;-33.886;151.198;2023-04-03T06:53:04;21.20;99.90
25991;DHT22;13779;-33.886;151.198;2023-04-03T06:55:35;21.20;99.90
25991;DHT22;13779;-33.886;151.198;2023-04-03T06:58:05;21.20;99.90
25991;DHT22;13779;-33.886;151.198;2023-04-03T07:00:35;21.20;99.90
25991;DHT22;13779;-33.886;151.198;2023-04-03T07:03:05;21.10;99.90
25991;DHT22;13779;-33.886;151.198;2023-04-03T07:05:36;21.10;99.90
25991;DHT22;13779;-33.886;151.198;2023-04-03T07:08:06;21.10;99.90
25991;DHT22;13779;-33.886;151.198;2023-04-03T07:10:38;21.00;99.90
25991;DHT22;13779;-33.886;151.198;2023-04-03T07:13:08;21.00;99.90
25991;DHT22;13779;-33.886;151.198;2023-04-03T07:15:38;21.00;99.90
25991;DHT22;13779;-33.886;151.198;2023-04-03T07:18:08;21.00;99.90
25991;DHT22;13779;-33.886;151.198;2023-04-03T07:20:39;20.90;99.90
25991;DHT22;13779;-33.886;151.198;2023-04-03T07:23:09;20.90;99.90
25991;DHT22;13779;-33.886;151.198;2023-04-03T07:25:45;20.90;99.90
25991;DHT22;13779;-33.886;151.198;2023-04-03T07:28:17;20.90;99.90
25991;DHT22;13779;-33.886;151.198;2023-04-03T07:31:02;20.90;99.90
25991;DHT22;13779;-33.886;151.198;2023-04-03T07:33:33;20.80;99.90
25991;DHT22;13779;-33.886;151.198;2023-04-03T07:36:05;20.90;99.90
25991;DHT22;13779;-33.886;151.198;2023-04-03T07:38:38;20.80;99.90
25991;DHT22;13779;-33.886;151.198;2023-04-03T07:41:13;20.70;99.90
25991;DHT22;13779;-33.886;151.198;2023-04-03T07:43:44;20.70;99.90
25991;DHT22;13779;-33.886;151.198;2023-04-03T07:46:16;20.70;99.90
25991;DHT22;13779;-33.886;151.198;2023-04-03T07:48:46;20.70;99.90
25991;DHT22;13779;-33.886;151.198;2023-04-03T07:51:17;20.80;99.90
25991;DHT22;13779;-33.886;151.198;2023-04-03T07:53:48;20.70;99.90
25991;DHT22;13779;-33.886;151.198;2023-04-03T07:56:18;20.60;99.90
25991;DHT22;13779;-33.886;151.198;2023-04-03T07:58:50;20.70;99.90
25991;DHT22;13779;-33.886;151.198;2023-04-03T08:01:20;20.60;99.90
25991;DHT22;13779;-33.886;151.198;2023-04-03T08:03:51;20.60;99.90
25991;DHT22;13779;-33.886;151.198;2023-04-03T08:06:22;20.60;99.90
25991;DHT22;13779;-33.886;151.198;2023-04-03T08:09:04;20.60;99.90
25991;DHT22;13779;-33.886;151.198;2023-04-03T08:11:35;20.60;99.90
25991;DHT22;13779;-33.886;151.198;2023-04-03T08:14:06;20.60;99.90
25991;DHT22;13779;-33.886;151.198;2023-04-03T08:16:37;20.60;99.90
25991;DHT22;13779;-33.886;151.198;2023-04-03T08:19:07;20.60;99.90
25991;DHT22;13779;-33.886;151.198;2023-04-03T08:21:45;20.60;99.90
25991;DHT22;13779;-33.886;151.198;2023-04-03T08:24:16;20.60;99.90
25991;DHT22;13779;-33.886;151.198;2023-04-03T08:26:47;20.60;99.90
25991;DHT22;13779;-33.886;151.198;2023-04-03T08:29:20;20.60;99.90
25991;DHT22;13779;-33.886;151.198;2023-04-03T08:31:51;20.70;99.90
25991;DHT22;13779;-33.886;151.198;2023-04-03T08:34:22;20.60;99.90
25991;DHT22;13779;-33.886;151.198;2023-04-03T08:36:53;20.60;99.90
25991;DHT22;13779;-33.886;151.198;2023-04-03T08:39:23;20.60;99.90
25991;DHT22;13779;-33.886;151.198;2023-04-03T08:41:57;20.60;99.90
25991;DHT22;13779;-33.886;151.198;2023-04-03T08:50:12;20.70;99.90
25991;DHT22;13779;-33.886;151.198;2023-04-03T08:52:55;20.70;99.90
25991;DHT22;13779;-33.886;151.198;2023-04-03T08:55:37;20.80;99.90
25991;DHT22;13779;-33.886;151.198;2023-04-03T08:58:50;20.80;99.90
25991;DHT22;13779;-33.886;151.198;2023-04-03T09:04:18;20.90;99.90
25991;DHT22;13779;-33.886;151.198;2023-04-03T09:07:02;20.90;99.90
25991;DHT22;13779;-33.886;151.198;2023-04-03T09:09:42;20.90;99.90
25991;DHT22;13779;-33.886;151.198;2023-04-03T09:15:15;20.90;99.90
25991;DHT22;13779;-33.886;151.198;2023-04-03T09:18:03;20.90;99.90
25991;DHT22;13779;-33.886;151.198;2023-04-03T09:20:54;21.00;99.90
25991;DHT22;13779;-33.886;151.198;2023-04-03T09:26:04;21.00;99.90
25991;DHT22;13779;-33.886;151.198;2023-04-03T09:28:38;20.90;99.90
25991;DHT22;13779;-33.886;151.198;2023-04-03T09:31:21;20.90;99.90
25991;DHT22;13779;-33.886;151.198;2023-04-03T09:34:03;20.90;99.90
25991;DHT22;13779;-33.886;151.198;2023-04-03T09:36:51;21.00;99.90
25991;DHT22;13779;-33.886;151.198;2023-04-03T09:39:24;20.90;99.90
25991;DHT22;13779;-33.886;151.198;2023-04-03T09:42:16;21.00;99.90
25991;DHT22;13779;-33.886;151.198;2023-04-03T09:45:03;21.00;99.90
25991;DHT22;13779;-33.886;151.198;2023-04-03T09:47:35;20.90;99.90
25991;DHT22;13779;-33.886;151.198;2023-04-03T09:52:46;20.90;99.90
25991;DHT22;13779;-33.886;151.198;2023-04-03T09:55:22;21.00;99.90
25991;DHT22;13779;-33.886;151.198;2023-04-03T09:58:02;20.90;99.90
25991;DHT22;13779;-33.886;151.198;2023-04-03T10:00:37;20.90;99.90
25991;DHT22;13779;-33.886;151.198;2023-04-03T10:03:33;21.00;99.90
25991;DHT22;13779;-33.886;151.198;2023-04-03T10:06:22;21.00;99.90
25991;DHT22;13779;-33.886;151.198;2023-04-03T10:09:25;20.90;99.90
25991;DHT22;13779;-33.886;151.198;2023-04-03T10:12:00;20.90;99.90
25991;DHT22;13779;-33.886;151.198;2023-04-03T10:14:38;20.90;99.90
25991;DHT22;13779;-33.886;151.198;2023-04-03T10:17:22;20.80;99.90
25991;DHT22;13779;-33.886;151.198;2023-04-03T10:19:57;20.80;99.90
25991;DHT22;13779;-33.886;151.198;2023-04-03T10:23:33;20.80;99.90
25991;DHT22;13779;-33.886;151.198;2023-04-03T10:34:23;20.80;99.90
25991;DHT22;13779;-33.886;151.198;2023-04-03T10:37:16;20.80;99.90
25991;DHT22;13779;-33.886;151.198;2023-04-03T10:42:39;20.80;99.90
25991;DHT22;13779;-33.886;151.198;2023-04-03T10:58:59;20.70;99.90
25991;DHT22;13779;-33.886;151.198;2023-04-03T11:01:37;20.60;99.90
25991;DHT22;13779;-33.886;151.198;2023-04-03T11:04:11;20.60;99.90
25991;DHT22;13779;-33.886;151.198;2023-04-03T11:06:56;20.60;99.90
25991;DHT22;13779;-33.886;151.198;2023-04-03T11:09:36;20.60;99.90
25991;DHT22;13779;-33.886;151.198;2023-04-03T11:15:02;20.70;99.90
25991;DHT22;13779;-33.886;151.198;2023-04-03T11:18:02;20.70;99.90
25991;DHT22;13779;-33.886;151.198;2023-04-03T11:20:32;20.70;99.90
25991;DHT22;13779;-33.886;151.198;2023-04-03T11:23:11;20.70;99.90
25991;DHT22;13779;-33.886;151.198;2023-04-03T11:25:44;20.70;99.90
25991;DHT22;13779;-33.886;151.198;2023-04-03T11:28:16;20.70;99.90
25991;DHT22;13779;-33.886;151.198;2023-04-03T11:36:28;20.70;99.90
25991;DHT22;13779;-33.886;151.198;2023-04-03T11:39:46;20.70;99.90
25991;DHT22;13779;-33.886;151.198;2023-04-03T11:41:55;20.60;99.90
25991;DHT22;13779;-33.886;151.198;2023-04-03T11:44:43;20.60;99.90
25991;DHT22;13779;-33.886;151.198;2023-04-03T11:47:46;20.60;99.90
25991;DHT22;13779;-33.886;151.198;2023-04-03T11:58:21;20.50;99.90
25991;DHT22;13779;-33.886;151.198;2023-04-03T12:00:55;20.50;99.90
25991;DHT22;13779;-33.886;151.198;2023-04-03T12:08:51;20.60;99.90
25991;DHT22;13779;-33.886;151.198;2023-04-03T12:11:33;20.60;99.90
25991;DHT22;13779;-33.886;151.198;2023-04-03T12:14:04;20.50;99.90
25991;DHT22;13779;-33.886;151.198;2023-04-03T12:19:30;20.50;99.90
25991;DHT22;13779;-33.886;151.198;2023-04-03T12:22:17;20.50;99.90
25991;DHT22;13779;-33.886;151.198;2023-04-03T12:24:51;20.50;99.90
25991;DHT22;13779;-33.886;151.198;2023-04-03T12:27:42;20.50;99.90
25991;DHT22;13779;-33.886;151.198;2023-04-03T12:30:22;20.50;99.90
25991;DHT22;13779;-33.886;151.198;2023-04-03T12:35:58;20.40;99.90
25991;DHT22;13779;-33.886;151.198;2023-04-03T12:41:45;20.40;99.90
25991;DHT22;13779;-33.886;151.198;2023-04-03T12:47:06;20.40;99.90
25991;DHT22;13779;-33.886;151.198;2023-04-03T12:49:43;20.40;99.90
25991;DHT22;13779;-33.886;151.198;2023-04-03T12:52:32;20.40;99.90
25991;DHT22;13779;-33.886;151.198;2023-04-03T12:55:07;20.40;99.90
25991;DHT22;13779;-33.886;151.198;2023-04-03T12:57:40;20.40;99.90
25991;DHT22;13779;-33.886;151.198;2023-04-03T13:00:34;20.30;99.90
25991;DHT22;13779;-33.886;151.198;2023-04-03T13:03:06;20.40;99.90
25991;DHT22;13779;-33.886;151.198;2023-04-03T13:05:46;20.40;99.90
25991;DHT22;13779;-33.886;151.198;2023-04-03T13:08:18;20.40;99.90
25991;DHT22;13779;-33.886;151.198;2023-04-03T13:11:10;20.40;99.90
25991;DHT22;13779;-33.886;151.198;2023-04-03T13:13:55;20.40;99.90
25991;DHT22;13779;-33.886;151.198;2023-04-03T13:16:29;20.40;99.90
25991;DHT22;13779;-33.886;151.198;2023-04-03T13:19:00;20.40;99.90
25991;DHT22;13779;-33.886;151.198;2023-04-03T13:21:32;20.30;99.90
25991;DHT22;13779;-33.886;151.198;2023-04-03T13:24:04;20.30;99.90
25991;DHT22;13779;-33.886;151.198;2023-04-03T13:26:43;20.30;99.90
25991;DHT22;13779;-33.886;151.198;2023-04-03T13:29:48;20.30;99.90
25991;DHT22;13779;-33.886;151.198;2023-04-03T13:32:25;20.30;99.90
25991;DHT22;13779;-33.886;151.198;2023-04-03T13:34:57;20.30;99.90
25991;DHT22;13779;-33.886;151.198;2023-04-03T13:37:54;20.30;99.90
25991;DHT22;13779;-33.886;151.198;2023-04-03T13:40:25;20.30;99.90
25991;DHT22;13779;-33.886;151.198;2023-04-03T13:43:19;20.20;99.90
25991;DHT22;13779;-33.886;151.198;2023-04-03T13:48:48;20.10;99.90
25991;DHT22;13779;-33.886;151.198;2023-04-03T13:51:28;20.10;99.90
25991;DHT22;13779;-33.886;151.198;2023-04-03T13:54:18;20.10;99.90
25991;DHT22;13779;-33.886;151.198;2023-04-03T13:56:54;20.00;99.90
25991;DHT22;13779;-33.886;151.198;2023-04-03T13:59:32;20.00;99.90
25991;DHT22;13779;-33.886;151.198;2023-04-03T14:07:16;20.00;99.90
25991;DHT22;13779;-33.886;151.198;2023-04-03T14:09:49;19.90;99.90
25991;DHT22;13779;-33.886;151.198;2023-04-03T14:12:33;19.80;99.90
25991;DHT22;13779;-33.886;151.198;2023-04-03T14:15:39;19.80;99.90
25991;DHT22;13779;-33.886;151.198;2023-04-03T14:18:02;19.70;99.90
25991;DHT22;13779;-33.886;151.198;2023-04-03T14:20:34;19.70;99.90
25991;DHT22;13779;-33.886;151.198;2023-04-03T14:23:04;19.70;99.90
25991;DHT22;13779;-33.886;151.198;2023-04-03T14:25:34;19.70;99.90
25991;DHT22;13779;-33.886;151.198;2023-04-03T14:28:18;19.70;99.90
25991;DHT22;13779;-33.886;151.198;2023-04-03T14:30:50;19.60;99.90
25991;DHT22;13779;-33.886;151.198;2023-04-03T14:33:22;19.60;99.90
25991;DHT22;13779;-33.886;151.198;2023-04-03T14:35:53;19.60;99.90
25991;DHT22;13779;-33.886;151.198;2023-04-03T14:38:27;19.50;99.90
25991;DHT22;13779;-33.886;151.198;2023-04-03T14:40:58;19.50;99.90
25991;DHT22;13779;-33.886;151.198;2023-04-03T14:43:40;19.60;99.90
25991;DHT22;13779;-33.886;151.198;2023-04-03T14:46:34;19.50;99.90
25991;DHT22;13779;-33.886;151.198;2023-04-03T14:49:25;19.50;99.90
25991;DHT22;13779;-33.886;151.198;2023-04-03T14:51:58;19.40;99.90
25991;DHT22;13779;-33.886;151.198;2023-04-03T14:54:28;19.30;99.90
25991;DHT22;13779;-33.886;151.198;2023-04-03T14:57:01;19.30;99.90
25991;DHT22;13779;-33.886;151.198;2023-04-03T14:59:32;19.30;99.90
25991;DHT22;13779;-33.886;151.198;2023-04-03T15:02:04;19.20;99.90
25991;DHT22;13779;-33.886;151.198;2023-04-03T15:04:36;19.10;99.90
25991;DHT22;13779;-33.886;151.198;2023-04-03T15:07:08;19.10;99.90
25991;DHT22;13779;-33.886;151.198;2023-04-03T15:09:39;19.00;99.90
25991;DHT22;13779;-33.886;151.198;2023-04-03T15:12:10;18.90;99.90
25991;DHT22;13779;-33.886;151.198;2023-04-03T15:14:41;18.90;99.90
25991;DHT22;13779;-33.886;151.198;2023-04-03T15:17:22;18.90;99.90
25991;DHT22;13779;-33.886;151.198;2023-04-03T15:19:53;18.90;99.90
25991;DHT22;13779;-33.886;151.198;2023-04-03T15:22:23;18.90;99.90
25991;DHT22;13779;-33.886;151.198;2023-04-03T15:24:56;18.80;99.90
25991;DHT22;13779;-33.886;151.198;2023-04-03T15:27:28;18.80;99.90
25991;DHT22;13779;-33.886;151.198;2023-04-03T15:29:59;18.80;99.90
25991;DHT22;13779;-33.886;151.198;2023-04-03T15:32:30;18.80;99.90
25991;DHT22;13779;-33.886;151.198;2023-04-03T15:35:00;18.80;99.90
25991;DHT22;13779;-33.886;151.198;2023-04-03T15:37:31;18.80;99.90
25991;DHT22;13779;-33.886;151.198;2023-04-03T15:40:03;18.80;99.90
25991;DHT22;13779;-33.886;151.198;2023-04-03T15:42:34;18.70;99.90
25991;DHT22;13779;-33.886;151.198;2023-04-03T15:45:05;18.70;99.90
25991;DHT22;13779;-33.886;151.198;2023-04-03T15:47:35;18.80;99.90
25991;DHT22;13779;-33.886;151.198;2023-04-03T15:50:06;18.80;99.90
25991;DHT22;13779;-33.886;151.198;2023-04-03T15:52:36;18.80;99.90
25991;DHT22;13779;-33.886;151.198;2023-04-03T15:55:07;18.80;99.90
25991;DHT22;13779;-33.886;151.198;2023-04-03T15:57:37;18.80;99.90
25991;DHT22;13779;-33.886;151.198;2023-04-03T16:00:07;18.80;99.90
25991;DHT22;13779;-33.886;151.198;2023-04-03T16:02:37;18.70;99.90
25991;DHT22;13779;-33.886;151.198;2023-04-03T16:05:09;18.80;99.90
25991;DHT22;13779;-33.886;151.198;2023-04-03T16:07:40;18.70;99.90
25991;DHT22;13779;-33.886;151.198;2023-04-03T16:10:11;18.60;99.90
25991;DHT22;13779;-33.886;151.198;2023-04-03T16:12:41;18.60;99.90
25991;DHT22;13779;-33.886;151.198;2023-04-03T16:15:12;18.60;99.90
25991;DHT22;13779;-33.886;151.198;2023-04-03T16:17:42;18.50;99.90
25991;DHT22;13779;-33.886;151.198;2023-04-03T16:20:14;18.50;99.90
25991;DHT22;13779;-33.886;151.198;2023-04-03T16:22:44;18.50;99.90
25991;DHT22;13779;-33.886;151.198;2023-04-03T16:25:15;18.50;99.90
25991;DHT22;13779;-33.886;151.198;2023-04-03T16:27:45;18.50;99.90
25991;DHT22;13779;-33.886;151.198;2023-04-03T16:30:15;18.40;99.90
25991;DHT22;13779;-33.886;151.198;2023-04-03T16:32:45;18.50;99.90
25991;DHT22;13779;-33.886;151.198;2023-04-03T16:35:16;18.40;99.90
25991;DHT22;13779;-33.886;151.198;2023-04-03T16:37:46;18.40;99.90
25991;DHT22;13779;-33.886;151.198;2023-04-03T16:40:16;18.40;99.90
25991;DHT22;13779;-33.886;151.198;2023-04-03T16:42:46;18.40;99.90
25991;DHT22;13779;-33.886;151.198;2023-04-03T16:45:16;18.40;99.90
25991;DHT22;13779;-33.886;151.198;2023-04-03T16:47:46;18.50;99.90
25991;DHT22;13779;-33.886;151.198;2023-04-03T16:50:16;18.50;99.90
25991;DHT22;13779;-33.886;151.198;2023-04-03T16:52:47;18.40;99.90
25991;DHT22;13779;-33.886;151.198;2023-04-03T16:55:17;18.40;99.90